Time;durP1;ratioP1;P1;durP2;ratioP2;P2;SDS_P1;SDS_P2;PMS_P1;PMS_P2;Temp;Humidity;BMP_temperature;BMP_pressure;BME280_temperature;BME280_humidity;BME280_pressure;Samples;Min_cycle;Max_cycle;Signal;HPM_P1;HPM_P2
2022/10/30 00:00:47;;;;;;;;;;;;;;;17.55;50.24;95881.03;5083903;28;20016;-74
2022/10/30 00:03:13;;;;;;;;;;;;;;;17.58;50.05;95874.22;5068806;28;20021;-74
2022/10/30 00:05:42;;;;;;;;;;;;;;;17.58;50.14;95869.63;5066947;28;20071;-73
2022/10/30 00:08:08;;;;;;;;;;;;;;;17.56;50.25;95869.19;5062519;28;20016;-74
2022/10/30 00:10:33;;;;;;;;;;;;;;;17.54;50.21;95866.03;5068966;28;20489;-75
2022/10/30 00:12:59;;;;;;;;;;;;;;;17.51;49.94;95868.59;5070112;28;20013;-73
2022/10/30 00:15:24;;;;;;;;;;;;;;;17.50;49.92;95864.31;5083786;28;20102;-73
2022/10/30 00:17:49;;;;;;;;;;;;;;;17.48;49.93;95864.66;5051575;28;20022;-74
2022/10/30 00:20:14;;;;;;;;;;;;;;;17.48;50.03;95870.03;5057422;28;20017;-75
2022/10/30 00:22:40;;;;;;;;;;;;;;;17.36;49.83;95868.09;5085328;28;20017;-74
2022/10/30 00:25:05;;;;;;;;;;;;;;;17.18;49.98;95874.69;5083661;28;20150;-75
2022/10/30 00:27:30;;;;;;;;;;;;;;;17.16;49.90;95868.88;5069976;28;20481;-73
2022/10/30 00:29:55;;;;;;;;;;;;;;;17.01;50.47;95861.41;5054499;28;20111;-73
2022/10/30 00:32:20;;;;;;;;;;;;;;;16.94;50.69;95861.94;5067595;28;20120;-74
2022/10/30 00:34:46;;;;;;;;;;;;;;;16.78;51.32;95871.66;5084330;28;20071;-74
2022/10/30 00:37:11;;;;;;;;;;;;;;;16.99;50.41;95869.75;5085349;28;20019;-73
2022/10/30 00:39:36;;;;;;;;;;;;;;;17.02;50.69;95868.34;5084647;28;20059;-74
2022/10/30 00:42:02;;;;;;;;;;;;;;;17.23;50.51;95865.66;5068788;28;20021;-73
2022/10/30 00:44:30;;;;;;;;;;;;;;;17.29;50.41;95867.03;5067610;28;20442;-73
2022/10/30 00:46:55;;;;;;;;;;;;;;;17.26;50.52;95867.69;5062252;28;20127;-74
2022/10/30 00:49:21;;;;;;;;;;;;;;;17.19;50.84;95862.03;5085682;28;20123;-73
2022/10/30 00:51:51;;;;;;;;;;;;;;;17.18;50.81;95861.25;5068774;28;20029;-73
2022/10/30 00:54:17;;;;;;;;;;;;;;;17.18;50.97;95857.78;5068481;28;20013;-72
2022/10/30 00:56:43;;;;;;;;;;;;;;;17.16;50.86;95858.13;5068351;28;20024;-73
2022/10/30 00:59:10;;;;;;;;;;;;;;;17.13;50.99;95859.56;5067111;28;20075;-73
2022/10/30 01:01:37;;;;;;;;;;;;;;;17.08;51.36;95861.66;5064110;28;20017;-73
2022/10/30 01:04:04;;;;;;;;;;;;;;;17.02;51.35;95860.28;5067771;28;20017;-73
2022/10/30 01:06:31;;;;;;;;;;;;;;;16.97;51.66;95865.84;5083641;28;20431;-73
2022/10/30 01:08:56;;;;;;;;;;;;;;;16.88;51.94;95869.38;5067954;28;20066;-73
2022/10/30 01:11:22;;;;;;;;;;;;;;;16.82;52.17;95862.63;5066585;28;20493;-73
2022/10/30 01:13:49;;;;;;;;;;;;;;;16.76;52.55;95871.19;5068161;28;20071;-73
2022/10/30 01:16:32;;;;;;;;;;;;;;;16.63;53.06;95872.97;5066536;28;20116;-73
2022/10/30 01:19:23;;;;;;;;;;;;;;;16.60;53.23;95874.41;5068423;28;20100;-73
2022/10/30 01:22:02;;;;;;;;;;;;;;;16.55;53.48;95874.59;5065104;28;20689;-74
2022/10/30 01:24:34;;;;;;;;;;;;;;;16.34;54.30;95871.84;5083697;28;20021;-74
2022/10/30 01:27:18;;;;;;;;;;;;;;;15.92;56.60;95876.25;5067416;28;20123;-73
2022/10/30 01:29:57;;;;;;;;;;;;;;;15.85;57.71;95870.56;5069441;28;20013;-73
2022/10/30 01:32:25;;;;;;;;;;;;;;;15.64;59.70;95872.34;5067221;28;20017;-73
2022/10/30 01:34:56;;;;;;;;;;;;;;;15.59;60.09;95884.00;5068497;28;20104;-72
2022/10/30 01:37:45;;;;;;;;;;;;;;;15.71;59.82;95881.47;5067228;28;20111;-73
2022/10/30 01:40:13;;;;;;;;;;;;;;;15.80;59.61;95884.16;5065094;28;20040;-73
2022/10/30 01:42:55;;;;;;;;;;;;;;;15.68;60.32;95884.03;5087734;28;20742;-74
2022/10/30 01:45:25;;;;;;;;;;;;;;;15.58;61.70;95877.84;5071520;28;20008;-73
2022/10/30 01:47:59;;;;;;;;;;;;;;;15.64;60.96;95878.50;5063361;28;20018;-73
2022/10/30 01:50:43;;;;;;;;;;;;;;;15.71;60.94;95881.47;5053950;28;20016;-73
2022/10/30 01:53:18;;;;;;;;;;;;;;;15.73;61.25;95875.81;5088162;28;20020;-74
2022/10/30 01:55:56;;;;;;;;;;;;;;;15.70;61.40;95882.59;5071251;28;20524;-73
2022/10/30 01:58:24;;;;;;;;;;;;;;;15.73;61.60;95878.50;5071148;28;20028;-72
2022/10/30 02:00:52;;;;;;;;;;;;;;;15.52;62.42;95881.81;5086228;28;20384;-73
2022/10/30 02:03:17;;;;;;;;;;;;;;;15.59;62.02;95879.44;5072647;28;20009;-73
2022/10/30 02:05:46;;;;;;;;;;;;;;;15.70;61.50;95881.81;5071110;28;20104;-72
2022/10/30 02:08:11;;;;;;;;;;;;;;;15.67;61.60;95880.56;5071299;28;20493;-73
2022/10/30 02:10:37;;;;;;;;;;;;;;;15.73;61.31;95881.19;5071238;28;20043;-73
2022/10/30 02:13:02;;;;;;;;;;;;;;;15.70;60.37;95879.13;5071039;28;20017;-73
2022/10/30 02:15:28;;;;;;;;;;;;;;;15.66;60.41;95883.53;5071157;28;20017;-73
2022/10/30 02:17:54;;;;;;;;;;;;;;;15.62;60.05;95879.91;5082192;28;20013;-73
2022/10/30 02:20:20;;;;;;;;;;;;;;;15.56;60.37;95871.25;5070745;28;20021;-73
2022/10/30 02:22:45;;;;;;;;;;;;;;;15.50;60.34;95881.31;5072207;28;20542;-74
2022/10/30 02:25:11;;;;;;;;;;;;;;;15.44;60.88;95871.88;5070533;28;20032;-72
2022/10/30 02:27:36;;;;;;;;;;;;;;;15.40;60.92;95878.19;5069919;28;20017;-73
2022/10/30 02:30:01;;;;;;;;;;;;;;;15.34;61.23;95867.63;5069214;28;20065;-74
2022/10/30 02:32:27;;;;;;;;;;;;;;;15.30;61.28;95871.25;5070881;28;20024;-73
2022/10/30 02:34:52;;;;;;;;;;;;;;;15.27;61.79;95871.88;5070028;28;20423;-73
2022/10/30 02:37:17;;;;;;;;;;;;;;;15.22;62.05;95870.16;5070876;28;20047;-74
2022/10/30 02:39:42;;;;;;;;;;;;;;;15.19;62.13;95870.78;5071716;28;20062;-73
2022/10/30 02:42:08;;;;;;;;;;;;;;;15.17;61.87;95869.53;5077401;28;20059;-73
2022/10/30 02:44:33;;;;;;;;;;;;;;;15.16;61.77;95863.38;5050356;28;20021;-73
2022/10/30 02:46:58;;;;;;;;;;;;;;;15.14;62.38;95862.09;5066156;28;20472;-73
2022/10/30 02:49:23;;;;;;;;;;;;;;;15.12;61.89;95873.13;5069138;28;20509;-75
2022/10/30 02:51:49;;;;;;;;;;;;;;;15.11;61.71;95868.09;5072091;28;20104;-73
2022/10/30 02:54:14;;;;;;;;;;;;;;;15.07;62.00;95863.38;5061036;28;20059;-73
2022/10/30 02:56:39;;;;;;;;;;;;;;;15.05;61.87;95860.22;5058819;28;20017;-73
2022/10/30 02:59:05;;;;;;;;;;;;;;;15.06;62.38;95864.47;5070585;28;20477;-73
2022/10/30 03:01:30;;;;;;;;;;;;;;;15.07;62.20;95867.94;5070351;28;20047;-74
2022/10/30 03:03:55;;;;;;;;;;;;;;;15.07;62.27;95862.56;5070287;28;20021;-73
2022/10/30 03:06:20;;;;;;;;;;;;;;;15.06;62.37;95861.78;5059816;28;20017;-74
2022/10/30 03:08:46;;;;;;;;;;;;;;;15.08;62.34;95867.63;5069897;28;20017;-74
2022/10/30 03:11:13;;;;;;;;;;;;;;;15.05;62.40;95865.59;5069862;28;20017;-73
2022/10/30 03:13:42;;;;;;;;;;;;;;;15.04;63.09;95872.00;5068472;28;20013;-73
2022/10/30 03:16:08;;;;;;;;;;;;;;;15.03;62.96;95865.09;5058757;28;20017;-72
2022/10/30 03:18:34;;;;;;;;;;;;;;;15.04;63.07;95863.97;5070474;28;20010;-73
2022/10/30 03:21:00;;;;;;;;;;;;;;;15.03;62.86;95862.41;5068257;28;20021;-74
2022/10/30 03:23:26;;;;;;;;;;;;;;;15.01;62.54;95869.19;5069923;28;20476;-72
2022/10/30 03:25:53;;;;;;;;;;;;;;;14.99;62.64;95866.81;5052867;28;20075;-73
2022/10/30 03:28:18;;;;;;;;;;;;;;;14.97;62.62;95862.88;5070671;28;20020;-73
2022/10/30 03:30:43;;;;;;;;;;;;;;;14.96;63.00;95851.38;5069905;28;20013;-74
2022/10/30 03:33:08;;;;;;;;;;;;;;;14.97;62.66;95861.00;5070766;28;20005;-73
2022/10/30 03:35:34;;;;;;;;;;;;;;;14.97;62.61;95849.50;5068612;28;20024;-73
2022/10/30 03:38:00;;;;;;;;;;;;;;;14.97;62.89;95846.81;5086428;28;20052;-73
2022/10/30 03:40:25;;;;;;;;;;;;;;;14.99;63.01;95841.91;5085029;28;20473;-73
2022/10/30 03:42:50;;;;;;;;;;;;;;;15.00;63.00;95849.66;5070042;28;20017;-73
2022/10/30 03:45:15;;;;;;;;;;;;;;;14.99;62.84;95836.56;5067737;28;20017;-73
2022/10/30 03:47:40;;;;;;;;;;;;;;;15.01;62.85;95843.19;5065780;28;20047;-74
2022/10/30 03:50:06;;;;;;;;;;;;;;;15.01;62.87;95837.84;5062343;28;20070;-73
2022/10/30 03:52:31;;;;;;;;;;;;;;;15.01;62.82;95847.75;5070524;28;20005;-73
2022/10/30 03:54:56;;;;;;;;;;;;;;;15.00;62.37;95848.88;5084686;28;20024;-73
2022/10/30 03:57:21;;;;;;;;;;;;;;;14.99;61.99;95848.06;5068953;28;20063;-73
2022/10/30 03:59:47;;;;;;;;;;;;;;;15.02;61.99;95854.69;5071928;28;20020;-73
2022/10/30 04:02:12;;;;;;;;;;;;;;;15.01;61.87;95850.44;5067736;28;20040;-74
2022/10/30 04:04:37;;;;;;;;;;;;;;;14.88;61.80;95856.72;5084687;28;20074;-69
2022/10/30 04:07:02;;;;;;;;;;;;;;;14.93;62.01;95856.56;5069851;28;20018;-70
2022/10/30 04:09:28;;;;;;;;;;;;;;;15.02;61.42;95858.16;5061207;28;20020;-73
2022/10/30 04:11:53;;;;;;;;;;;;;;;15.06;61.76;95855.66;5070344;28;20009;-74
2022/10/30 04:14:18;;;;;;;;;;;;;;;15.06;61.50;95851.06;5070742;28;20017;-69
2022/10/30 04:16:43;;;;;;;;;;;;;;;15.09;61.01;95849.66;5069219;28;20500;-69
2022/10/30 04:19:10;;;;;;;;;;;;;;;15.13;60.87;95855.94;5070278;28;20104;-69
2022/10/30 04:21:35;;;;;;;;;;;;;;;15.15;60.90;95855.63;5070056;28;20497;-68
2022/10/30 04:24:00;;;;;;;;;;;;;;;15.16;60.71;95855.34;5069408;28;20067;-69
2022/10/30 04:26:25;;;;;;;;;;;;;;;15.14;60.66;95856.75;5083612;28;20408;-69
2022/10/30 04:28:51;;;;;;;;;;;;;;;15.12;60.82;95861.63;5050181;28;20024;-68
2022/10/30 04:31:16;;;;;;;;;;;;;;;15.09;60.78;95858.47;5050220;28;20010;-69
2022/10/30 04:33:41;;;;;;;;;;;;;;;15.07;60.40;95862.56;5050156;28;20036;-69
2022/10/30 04:36:06;;;;;;;;;;;;;;;15.03;60.35;95854.38;5049669;28;20458;-70
2022/10/30 04:38:32;;;;;;;;;;;;;;;14.85;61.13;95858.16;5052289;28;20040;-69
2022/10/30 04:40:57;;;;;;;;;;;;;;;14.86;61.09;95857.03;5049959;28;20053;-69
2022/10/30 04:43:22;;;;;;;;;;;;;;;14.90;60.92;95858.00;5050113;28;20010;-70
2022/10/30 04:45:47;;;;;;;;;;;;;;;14.85;60.94;95854.69;5062729;28;20048;-70
2022/10/30 04:48:13;;;;;;;;;;;;;;;14.82;60.83;95856.09;5069687;28;20036;-69
2022/10/30 04:50:39;;;;;;;;;;;;;;;14.82;60.78;95845.38;5066461;28;20144;-70
2022/10/30 04:53:06;;;;;;;;;;;;;;;14.80;60.75;95852.94;5052828;28;20132;-69
2022/10/30 04:55:31;;;;;;;;;;;;;;;14.77;61.15;95848.19;5068318;28;20462;-70
2022/10/30 04:57:57;;;;;;;;;;;;;;;14.77;60.73;95845.53;5069950;28;20035;-69
2022/10/30 05:00:22;;;;;;;;;;;;;;;14.59;60.40;95806.41;5069843;28;20052;-69
2022/10/30 05:02:48;;;;;;;;;;;;;;;14.78;60.47;95839.84;5064155;28;20058;-70
2022/10/30 05:05:13;;;;;;;;;;;;;;;14.75;60.42;95839.72;5075422;28;20017;-69
2022/10/30 05:07:38;;;;;;;;;;;;;;;14.73;60.32;95837.31;5085884;28;20024;-70
2022/10/30 05:10:04;;;;;;;;;;;;;;;14.70;60.75;95839.84;5059603;28;20020;-70
2022/10/30 05:12:29;;;;;;;;;;;;;;;14.69;60.83;95835.56;5057318;28;20087;-69
2022/10/30 05:14:54;;;;;;;;;;;;;;;14.66;60.92;95830.88;5051934;28;20013;-70
2022/10/30 05:17:20;;;;;;;;;;;;;;;14.62;60.93;95825.34;5053411;28;20064;-70
2022/10/30 05:19:45;;;;;;;;;;;;;;;14.61;60.99;95821.09;5056066;28;20017;-69
2022/10/30 05:22:11;;;;;;;;;;;;;;;14.60;60.65;95824.09;5073393;28;20978;-70
2022/10/30 05:24:36;;;;;;;;;;;;;;;14.59;60.95;95819.81;5072253;28;20020;-69
2022/10/30 05:27:02;;;;;;;;;;;;;;;14.61;60.44;95817.63;5073005;28;20062;-69
2022/10/30 05:29:27;;;;;;;;;;;;;;;14.60;60.42;95816.84;5072667;28;20017;-70
2022/10/30 05:31:52;;;;;;;;;;;;;;;14.62;60.42;95819.19;5073182;28;20055;-69
2022/10/30 05:34:17;;;;;;;;;;;;;;;14.64;60.26;95816.97;5073026;28;20065;-70
2022/10/30 05:36:43;;;;;;;;;;;;;;;14.64;60.30;95828.50;5088325;28;20017;-70
2022/10/30 05:39:08;;;;;;;;;;;;;;;14.65;60.04;95829.28;5072511;28;20107;-70
2022/10/30 05:41:33;;;;;;;;;;;;;;;14.66;59.77;95826.28;5084782;28;20382;-70
2022/10/30 05:43:58;;;;;;;;;;;;;;;14.66;59.71;95831.66;5053121;28;20009;-70
2022/10/30 05:46:23;;;;;;;;;;;;;;;14.67;59.73;95832.44;5052331;28;20009;-71
2022/10/30 05:48:49;;;;;;;;;;;;;;;14.67;60.02;95833.22;5053265;28;20021;-69
2022/10/30 05:51:14;;;;;;;;;;;;;;;14.67;59.88;95830.53;5052970;28;20365;-70
2022/10/30 05:53:39;;;;;;;;;;;;;;;14.67;59.50;95835.91;5057442;28;20017;-71
2022/10/30 05:56:04;;;;;;;;;;;;;;;14.67;59.27;95825.19;5072456;28;20015;-70
2022/10/30 05:58:30;;;;;;;;;;;;;;;14.66;58.98;95825.50;5072526;28;20016;-70
2022/10/30 06:00:55;;;;;;;;;;;;;;;14.73;58.71;95820.47;5072711;28;20023;-71
2022/10/30 06:03:20;;;;;;;;;;;;;;;14.78;58.67;95821.09;5088510;28;20012;-70
2022/10/30 06:05:46;;;;;;;;;;;;;;;14.83;58.42;95818.28;5063346;28;20022;-70
2022/10/30 06:08:11;;;;;;;;;;;;;;;14.87;58.25;95814.97;5052302;28;20124;-70
2022/10/30 06:10:37;;;;;;;;;;;;;;;14.88;58.10;95814.66;5070949;28;20017;-71
2022/10/30 06:13:03;;;;;;;;;;;;;;;14.97;58.34;95826.16;5072468;28;20032;-71
2022/10/30 06:15:29;;;;;;;;;;;;;;;15.01;58.06;95816.41;5052435;28;20018;-70
2022/10/30 06:17:55;;;;;;;;;;;;;;;15.07;57.88;95827.75;5052471;28;20010;-70
2022/10/30 06:20:22;;;;;;;;;;;;;;;15.17;57.85;95823.97;5052295;28;20428;-70
2022/10/30 06:22:57;;;;;;;;;;;;;;;15.24;57.15;95825.06;5052251;28;20018;-70
2022/10/30 06:25:22;;;;;;;;;;;;;;;15.32;56.90;95826.94;5067452;28;20094;-70
2022/10/30 06:27:48;;;;;;;;;;;;;;;15.42;56.84;95820.47;5072391;28;20497;-70
2022/10/30 06:30:13;;;;;;;;;;;;;;;15.50;56.82;95822.34;5087864;28;20056;-70
2022/10/30 06:32:38;;;;;;;;;;;;;;;15.58;56.45;95823.44;5071289;28;20009;-70
2022/10/30 06:35:04;;;;;;;;;;;;;;;15.68;56.07;95827.72;5071645;28;20017;-70
2022/10/30 06:37:29;;;;;;;;;;;;;;;15.76;55.72;95818.84;5072122;28;20009;-71
2022/10/30 06:39:54;;;;;;;;;;;;;;;15.84;55.45;95821.50;5086575;28;20052;-70
2022/10/30 06:42:19;;;;;;;;;;;;;;;15.92;54.98;95822.59;5071989;28;20123;-71
2022/10/30 06:44:45;;;;;;;;;;;;;;;16.07;54.74;95822.06;5070740;28;20013;-70
2022/10/30 06:47:10;;;;;;;;;;;;;;;16.14;54.27;95826.16;5071677;28;20532;-68
2022/10/30 06:49:35;;;;;;;;;;;;;;;15.90;53.46;95824.00;5071808;28;20445;-69
2022/10/30 06:52:00;;;;;;;;;;;;;;;16.24;53.94;95825.78;5087359;28;20096;-70
2022/10/30 06:54:25;;;;;;;;;;;;;;;16.40;53.66;95821.44;5070734;28;20020;-70
2022/10/30 06:56:51;;;;;;;;;;;;;;;16.55;53.34;95822.78;5060223;28;20017;-70
2022/10/30 06:59:16;;;;;;;;;;;;;;;16.65;53.35;95827.78;5051696;28;20484;-72
2022/10/30 07:01:41;;;;;;;;;;;;;;;16.74;54.46;95817.00;5066982;28;20013;-68
2022/10/30 07:04:06;;;;;;;;;;;;;;;16.92;52.84;95829.19;5051577;28;20055;-67
2022/10/30 07:06:32;;;;;;;;;;;;;;;17.07;52.51;95819.75;5051078;28;20010;-68
2022/10/30 07:08:57;;;;;;;;;;;;;;;17.15;52.12;95825.09;5052422;28;20063;-75
2022/10/30 07:11:23;;;;;;;;;;;;;;;17.27;51.64;95824.34;5087107;28;20477;-74
2022/10/30 07:13:48;;;;;;;;;;;;;;;17.39;51.34;95826.28;5086972;28;20477;-75
2022/10/30 07:16:13;;;;;;;;;;;;;;;17.52;51.16;95832.50;5086346;28;20020;-75
2022/10/30 07:18:38;;;;;;;;;;;;;;;17.62;50.78;95829.41;5071258;28;20024;-78
2022/10/30 07:21:04;;;;;;;;;;;;;;;17.73;50.53;95832.50;5070613;28;20009;-75
2022/10/30 07:23:29;;;;;;;;;;;;;;;17.84;50.33;95839.03;5086113;28;20064;-75
2022/10/30 07:25:54;;;;;;;;;;;;;;;17.95;49.83;95832.09;5090252;28;20021;-74
2022/10/30 07:28:19;;;;;;;;;;;;;;;18.03;49.94;95833.91;5074892;28;20462;-68
2022/10/30 07:30:44;;;;;;;;;;;;;;;18.13;49.30;95840.75;5052020;28;20026;-68
2022/10/30 07:33:10;;;;;;;;;;;;;;;18.22;49.43;95832.56;5051686;28;20020;-68
2022/10/30 07:35:35;;;;;;;;;;;;;;;18.33;48.86;95833.72;5060788;28;20028;-71
2022/10/30 07:38:06;;;;;;;;;;;;;;;18.44;48.61;95840.22;5065984;28;20017;-69
2022/10/30 07:40:32;;;;;;;;;;;;;;;18.55;48.51;95838.63;5068067;28;20114;-73
2022/10/30 07:42:58;;;;;;;;;;;;;;;18.65;47.94;95840.88;5069918;28;20062;-72
2022/10/30 07:45:23;;;;;;;;;;;;;;;18.63;46.96;95843.13;5069823;28;20020;-73
2022/10/30 07:47:48;;;;;;;;;;;;;;;18.84;47.29;95847.63;5070985;28;20020;-69
2022/10/30 07:50:14;;;;;;;;;;;;;;;18.99;47.04;95843.44;5071072;28;20009;-70
2022/10/30 07:52:39;;;;;;;;;;;;;;;19.01;46.75;95841.97;5070813;28;20013;-70
2022/10/30 07:55:04;;;;;;;;;;;;;;;19.17;46.50;95840.13;5068254;28;20048;-70
2022/10/30 07:57:31;;;;;;;;;;;;;;;19.30;46.45;95846.28;5069305;28;20048;-71
2022/10/30 07:59:56;;;;;;;;;;;;;;;19.42;46.47;95843.53;5066432;28;20098;-73
2022/10/30 08:02:21;;;;;;;;;;;;;;;19.30;45.94;95845.50;5068240;28;20017;-71
2022/10/30 08:04:46;;;;;;;;;;;;;;;19.58;46.39;95845.50;5070683;28;20016;-72
2022/10/30 08:07:12;;;;;;;;;;;;;;;19.69;46.18;95849.31;5070974;28;20490;-71
2022/10/30 08:09:37;;;;;;;;;;;;;;;19.79;45.76;95848.03;5069600;28;20056;-71
2022/10/30 08:12:02;;;;;;;;;;;;;;;19.90;45.51;95843.69;5054185;28;20024;-72
2022/10/30 08:14:27;;;;;;;;;;;;;;;19.98;45.25;95840.03;5050082;28;20020;-70
2022/10/30 08:16:53;;;;;;;;;;;;;;;20.08;44.97;95844.16;5067209;28;20023;-69
2022/10/30 08:19:18;;;;;;;;;;;;;;;20.02;44.90;95840.94;5068313;28;20385;-68
2022/10/30 08:21:43;;;;;;;;;;;;;;;20.20;44.59;95842.13;5070718;28;20020;-70
2022/10/30 08:24:08;;;;;;;;;;;;;;;20.31;45.04;95842.41;5069885;28;20024;-70
2022/10/30 08:26:34;;;;;;;;;;;;;;;20.51;44.75;95840.59;5069984;28;20013;-71
2022/10/30 08:28:59;;;;;;;;;;;;;;;20.57;44.25;95836.47;5065596;28;20116;-71
2022/10/30 08:31:24;;;;;;;;;;;;;;;20.64;44.32;95839.38;5062240;28;20023;-71
2022/10/30 08:33:50;;;;;;;;;;;;;;;20.66;43.53;95834.38;5086016;28;20013;-70
2022/10/30 08:36:15;;;;;;;;;;;;;;;20.81;43.71;95834.72;5069914;28;20397;-69
2022/10/30 08:38:40;;;;;;;;;;;;;;;20.90;44.02;95835.31;5068560;28;20075;-68
2022/10/30 08:41:05;;;;;;;;;;;;;;;20.92;43.21;95833.03;5070186;28;20469;-70
2022/10/30 08:43:30;;;;;;;;;;;;;;;21.13;43.51;95838.88;5070374;28;20108;-70
2022/10/30 08:45:58;;;;;;;;;;;;;;;21.24;43.05;95841.81;5069186;28;20018;-68
2022/10/30 08:48:24;;;;;;;;;;;;;;;21.33;43.16;95839.72;5072931;28;20021;-69
2022/10/30 08:50:49;;;;;;;;;;;;;;;21.45;42.59;95836.09;5074026;28;20020;-70
2022/10/30 08:53:14;;;;;;;;;;;;;;;21.53;42.31;95835.88;5073945;28;20009;-71
2022/10/30 08:55:39;;;;;;;;;;;;;;;21.60;41.43;95835.25;5072763;28;20511;-69
2022/10/30 08:58:05;;;;;;;;;;;;;;;21.68;41.85;95834.22;5073756;28;20496;-70
2022/10/30 09:00:30;;;;;;;;;;;;;;;21.88;41.60;95834.19;5075086;28;20061;-71
2022/10/30 09:02:55;;;;;;;;;;;;;;;21.96;41.15;95835.91;5073415;28;20424;-72
2022/10/30 09:05:20;;;;;;;;;;;;;;;22.11;40.75;95837.75;5073542;28;20334;-69
2022/10/30 09:07:46;;;;;;;;;;;;;;;22.16;40.00;95829.31;5073657;28;20017;-70
2022/10/30 09:10:11;;;;;;;;;;;;;;;22.26;40.15;95823.25;5071322;28;20063;-70
2022/10/30 09:12:36;;;;;;;;;;;;;;;22.45;40.03;95824.34;5072649;28;20024;-73
2022/10/30 09:15:02;;;;;;;;;;;;;;;22.48;39.67;95824.41;5088972;28;20014;-73
2022/10/30 09:17:27;;;;;;;;;;;;;;;22.62;38.95;95823.81;5073574;28;20066;-74
2022/10/30 09:19:53;;;;;;;;;;;;;;;22.28;39.00;95823.69;5088884;28;20488;-72
2022/10/30 09:22:18;;;;;;;;;;;;;;;22.66;38.57;95823.88;5072090;28;20498;-73
2022/10/30 09:24:43;;;;;;;;;;;;;;;22.40;38.17;95821.94;5072774;28;20062;-72
2022/10/30 09:27:08;;;;;;;;;;;;;;;22.60;37.96;95823.41;5072751;28;20507;-72
2022/10/30 09:29:34;;;;;;;;;;;;;;;23.04;37.31;95829.13;5088959;28;20021;-70
2022/10/30 09:32:00;;;;;;;;;;;;;;;23.27;37.41;95826.31;5072079;28;20020;-81
2022/10/30 09:34:26;;;;;;;;;;;;;;;23.38;37.03;95828.38;5071670;28;20071;-73
2022/10/30 09:36:51;;;;;;;;;;;;;;;23.45;37.33;95820.31;5071173;28;20017;-74
2022/10/30 09:39:16;;;;;;;;;;;;;;;23.22;37.20;95825.84;5070126;28;20621;-72
2022/10/30 09:42:10;;;;;;;;;;;;;;;23.45;37.27;95825.75;5071779;28;20130;-71
2022/10/30 09:44:57;;;;;;;;;;;;;;;23.18;36.49;95827.72;5054767;28;20017;-71
2022/10/30 09:47:41;;;;;;;;;;;;;;;23.61;36.74;95823.63;5072820;28;20098;-72
2022/10/30 09:50:28;;;;;;;;;;;;;;;23.42;37.45;95821.84;5071463;28;20103;-71
2022/10/30 09:53:01;;;;;;;;;;;;;;;23.61;38.28;95824.38;5072688;28;20009;-72
2022/10/30 09:55:34;;;;;;;;;;;;;;;23.53;38.99;95832.81;5072258;28;20013;-72
2022/10/30 09:58:04;;;;;;;;;;;;;;;23.34;38.69;95831.84;5087476;28;20104;-72
2022/10/30 10:00:40;;;;;;;;;;;;;;;22.96;39.28;95827.44;5067504;28;20029;-72
2022/10/30 10:03:11;;;;;;;;;;;;;;;23.40;38.26;95829.56;5052466;28;20070;-72
2022/10/30 10:05:42;;;;;;;;;;;;;;;23.81;37.51;95833.19;5052084;28;20147;-72
2022/10/30 10:08:12;;;;;;;;;;;;;;;23.68;37.95;95825.66;5052266;28;20127;-72
2022/10/30 10:10:38;;;;;;;;;;;;;;;23.45;37.61;95821.09;5051941;28;20009;-72
2022/10/30 10:13:05;;;;;;;;;;;;;;;23.59;37.44;95829.41;5059444;28;20010;-72
2022/10/30 10:15:37;;;;;;;;;;;;;;;23.63;37.35;95829.47;5087457;28;20373;-72
2022/10/30 10:18:05;;;;;;;;;;;;;;;24.07;37.26;95834.22;5087861;28;20013;-72
2022/10/30 10:20:36;;;;;;;;;;;;;;;24.18;37.05;95829.66;5069819;28;20012;-72
2022/10/30 10:23:10;;;;;;;;;;;;;;;24.40;36.86;95836.06;5050639;28;20052;-72
2022/10/30 10:25:38;;;;;;;;;;;;;;;23.57;38.27;95839.06;5051315;28;20017;-72
2022/10/30 10:28:24;;;;;;;;;;;;;;;23.90;37.79;95837.50;5050414;28;20021;-72
2022/10/30 10:31:11;;;;;;;;;;;;;;;24.37;36.55;95832.19;5052005;28;20014;-73
2022/10/30 10:33:39;;;;;;;;;;;;;;;24.30;36.42;95826.63;5051856;28;20021;-72
2022/10/30 10:36:08;;;;;;;;;;;;;;;24.03;36.81;95827.94;5051329;28;20104;-72
2022/10/30 10:38:43;;;;;;;;;;;;;;;24.23;36.35;95832.03;5051741;28;20528;-72
2022/10/30 10:41:26;;;;;;;;;;;;;;;24.11;36.80;95835.03;5052084;28;20036;-72
2022/10/30 10:43:54;;;;;;;;;;;;;;;24.18;36.65;95837.81;5062979;28;20017;-72
2022/10/30 10:46:36;;;;;;;;;;;;;;;24.06;36.63;95838.09;5071141;28;20013;-72
2022/10/30 10:49:19;;;;;;;;;;;;;;;24.45;35.69;95829.50;5071482;28;20056;-72
2022/10/30 10:51:48;;;;;;;;;;;;;;;24.15;35.91;95832.31;5079590;28;20017;-71
2022/10/30 10:54:17;;;;;;;;;;;;;;;23.90;35.82;95834.78;5051499;28;20058;-73
2022/10/30 10:56:45;;;;;;;;;;;;;;;24.40;34.80;95829.84;5049657;28;20017;-72
2022/10/30 10:59:19;;;;;;;;;;;;;;;24.79;34.43;95825.50;5051306;28;20107;-72
2022/10/30 11:01:50;;;;;;;;;;;;;;;24.77;34.14;95825.09;5051569;28;20025;-72
2022/10/30 11:04:38;;;;;;;;;;;;;;;25.09;33.34;95821.81;5051604;28;20012;-71
2022/10/30 11:07:23;;;;;;;;;;;;;;;24.05;33.65;95771.28;5049785;28;20102;-71
2022/10/30 11:09:52;;;;;;;;;;;;;;;24.84;33.43;95819.69;5049619;28;20017;-71
2022/10/30 11:12:29;;;;;;;;;;;;;;;24.74;34.27;95816.91;5049774;28;20067;-72
2022/10/30 11:14:56;;;;;;;;;;;;;;;24.67;34.48;95809.47;5067094;28;20024;-71
2022/10/30 11:17:25;;;;;;;;;;;;;;;24.26;33.46;95814.97;5071204;28;20017;-72
2022/10/30 11:19:57;;;;;;;;;;;;;;;24.31;31.88;95811.09;5070930;28;20009;-71
2022/10/30 11:22:31;;;;;;;;;;;;;;;24.52;31.85;95805.88;5070943;28;20013;-72
2022/10/30 11:25:16;;;;;;;;;;;;;;;24.46;31.86;95812.03;5052894;28;20092;-71
2022/10/30 11:27:43;;;;;;;;;;;;;;;24.80;31.97;95805.28;5050651;28;20013;-71
2022/10/30 11:30:19;;;;;;;;;;;;;;;24.30;32.94;95802.16;5050604;28;20009;-71
2022/10/30 11:32:45;;;;;;;;;;;;;;;25.09;30.78;95802.75;5050414;28;20044;-71
2022/10/30 11:35:11;;;;;;;;;;;;;;;24.85;31.52;95804.91;5050577;28;20104;-71
2022/10/30 11:37:38;;;;;;;;;;;;;;;24.98;31.16;95802.66;5070356;28;20013;-72
2022/10/30 11:40:06;;;;;;;;;;;;;;;25.08;31.11;95807.41;5086167;28;20471;-71
2022/10/30 11:42:32;;;;;;;;;;;;;;;24.65;31.89;95795.47;5070342;28;20531;-71
2022/10/30 11:44:57;;;;;;;;;;;;;;;24.55;32.29;95791.50;5069854;28;20013;-72
2022/10/30 11:47:33;;;;;;;;;;;;;;;24.85;31.84;95785.09;5053534;28;20018;-72
2022/10/30 11:50:00;;;;;;;;;;;;;;;24.91;31.82;95789.00;5070320;28;20392;-72
2022/10/30 11:52:26;;;;;;;;;;;;;;;25.07;31.66;95789.50;5070135;28;20009;-71
2022/10/30 11:54:57;;;;;;;;;;;;;;;25.18;31.65;95780.59;5070226;28;20021;-71
2022/10/30 11:57:22;;;;;;;;;;;;;;;24.67;32.48;95776.84;5069551;28;20083;-71
2022/10/30 11:59:50;;;;;;;;;;;;;;;24.44;33.17;95776.28;5070130;28;20473;-72
2022/10/30 12:02:20;;;;;;;;;;;;;;;24.94;32.83;95777.38;5070267;28;20016;-71
2022/10/30 12:04:46;;;;;;;;;;;;;;;24.67;33.11;95765.16;5069879;28;20017;-71
2022/10/30 12:07:14;;;;;;;;;;;;;;;24.64;32.09;95777.59;5069941;28;20010;-71
2022/10/30 12:09:43;;;;;;;;;;;;;;;24.88;31.62;95774.22;5069143;28;20028;-71
2022/10/30 12:12:10;;;;;;;;;;;;;;;25.04;31.45;95775.88;5069846;28;20049;-71
2022/10/30 12:14:35;;;;;;;;;;;;;;;25.52;31.05;95762.06;5069918;28;20028;-71
2022/10/30 12:17:00;;;;;;;;;;;;;;;25.65;30.73;95760.53;5069418;28;20009;-71
2022/10/30 12:19:26;;;;;;;;;;;;;;;25.73;30.21;95759.38;5069739;28;20013;-71
2022/10/30 12:21:52;;;;;;;;;;;;;;;25.36;30.64;95755.00;5056565;28;20053;-71
2022/10/30 12:24:20;;;;;;;;;;;;;;;25.78;30.61;95759.03;5049948;28;20493;-71
2022/10/30 12:26:51;;;;;;;;;;;;;;;25.21;30.56;95752.63;5047705;28;20017;-71
2022/10/30 12:29:17;;;;;;;;;;;;;;;25.54;30.07;95746.91;5052668;28;20036;-72
2022/10/30 12:31:51;;;;;;;;;;;;;;;25.37;30.09;95744.91;5085275;28;20013;-72
2022/10/30 12:34:25;;;;;;;;;;;;;;;25.66;29.57;95743.03;5069882;28;20377;-72
2022/10/30 12:36:53;;;;;;;;;;;;;;;25.10;30.48;95744.41;5068099;28;20012;-72
2022/10/30 12:39:26;;;;;;;;;;;;;;;25.27;30.26;95735.53;5069032;28;20040;-72
2022/10/30 12:42:11;;;;;;;;;;;;;;;25.56;29.86;95735.63;5069874;28;20009;-71
2022/10/30 12:44:49;;;;;;;;;;;;;;;25.87;29.61;95736.84;5069551;28;20104;-71
2022/10/30 12:47:33;;;;;;;;;;;;;;;25.57;29.76;95737.16;5069635;28;20167;-72
2022/10/30 12:50:17;;;;;;;;;;;;;;;25.72;29.67;95729.81;5069465;28;20020;-71